• Join FlightAware (Why Join?)
  • Login
  • US Flag 
09:35AM EDT


 

Airport Tracker/Info


-or-


 

Live Flight TrackerFlight Track Log ✈ AWE3418 ✈ 12-Jun-2013 ✈ KPHL - KMHT

Flight Track Log - Related Links

Times and Time Zones

All times are in EDT time to prevent confusion due to time zone crossing. See the AWE3418 flight status page for this flight to view local times or setup timezone preferences in your user account.

Time Position Orientation Groundspeed Altitude Reporting Facility
EDT Latitude Longitude Course Direction KTS MPH feet Rate Location/Type
06:56PM 39.8667 -75.2833 38° Northeast 161 185 700  Level Philadelphia TRACON
06:57PM 39.8000 -75.3333 210° Southwest 231 266 2,800 1,920 Climbing Philadelphia TRACON
06:58PM 39.8160 -74.8635 105° East  Level FlightAware Approximate
06:58PM 39.7333 -75.3333 180° South 294 338 5,200  Level Philadelphia TRACON
06:59PM 39.7911 -74.7389 105° East  Level FlightAware Approximate
06:59PM 39.7333 -75.2333 90° East 300 345 7,700  Level Philadelphia TRACON
07:00PM 39.8373 -74.6461 37° Northeast  Level FlightAware Approximate
07:00PM 39.7500 -75.1333 78° East 321 369 10,500  Level Philadelphia TRACON
07:01PM 39.9157 -74.5676 38° Northeast  Level FlightAware Approximate
07:02PM 39.7753 -74.8764 83° East 383 441 12,000  Level New York Center
07:03PM 39.7897 -74.7583 81° East 367 422 13,100 1,860 Climbing New York Center
07:04PM 39.8578 -74.6569 49° Northeast 337 388 15,800 2,400 Climbing New York Center
07:05PM 39.9353 -74.5800 37° Northeast 337 388 18,100 2,160 Climbing New York Center
07:06PM 40.0064 -74.5078 38° Northeast 349 402 20,200 2,220 Climbing New York Center
07:07PM 40.0992 -74.4125 38° Northeast 373 429 22,500 2,220 Climbing New York Center
07:08PM 40.1869 -74.3303 36° Northeast 379 436 24,700 1,860 Climbing New York Center
07:09PM 40.2783 -74.2697 27° Northeast 374 430 26,400 1,140 Climbing New York Center
07:10PM 40.3789 -74.2556 North 358 412 27,000 300 Climbing New York Center
07:11PM 40.4775 -74.2333 10° North 358 412 27,000  Level New York Center
07:12PM 40.5781 -74.2192 North 358 412 27,000  Level New York Center
07:14PM 40.7800 -74.1833 North 358 412 27,000  Level Boston Center
07:15PM 40.8803 -74.1667 North 358 412 27,000  Level Boston Center
07:16PM 40.9786 -74.1475 North 358 412 27,000  Level Boston Center
07:17PM 41.0811 -74.1253 North 363 418 27,000  Level Boston Center
07:18PM 41.1792 -74.1086 North 363 418 27,000  Level Boston Center
07:19PM 41.2672 -74.0889 10° North 363 418 27,000  Level Boston Center
07:20PM 41.3694 -74.0694 North 363 418 27,000  Level Boston Center
07:22PM 41.5869 -74.0306 North 375 432 27,000  Level Boston Center
07:23PM 41.6914 -74.0081 North 370 426 27,000  Level Boston Center
07:24PM 41.7811 -73.9908 North 370 426 27,000  Level Boston Center
07:25PM 41.8878 -73.9739 North 363 418 27,000  Level Boston Center
07:26PM 41.9900 -73.9539 North 363 418 27,000  Level Boston Center
07:27PM 42.0806 -73.8864 29° Northeast 363 418 27,000 -180 Level Boston Center
07:28PM 42.1406 -73.7589 58° Northeast 357 411 26,700 -900 Descending Boston Center
07:29PM 42.2003 -73.6311 58° Northeast 393 452 25,300 -1,500 Descending Boston Center
07:30PM 42.2622 -73.4947 58° Northeast 414 476 23,700 -1,560 Descending Boston Center
07:31PM 42.3194 -73.3639 59° Northeast 414 476 22,200 -1,500 Descending Boston Center
07:32PM 42.3767 -73.2356 59° Northeast 408 470 20,800 -1,500 Descending Boston Center
07:33PM 42.4297 -73.1181 59° Northeast 383 441 19,300 -900 Descending Boston Center
07:34PM 42.4886 -72.9864 59° Northeast 361 415 19,000 -180 Descending Boston Center
07:35PM 42.5286 -72.8936 60° Northeast 361 415 19,000  Level Boston Center
07:36PM 42.5875 -72.7644 58° Northeast 361 415 19,000  Level Boston Center
07:37PM 42.6400 -72.6461 59° Northeast 361 415 19,000 -660 Level Boston Center
07:38PM 42.6942 -72.5247 59° Northeast 361 415 17,700 -1,560 Descending Boston Center
07:39PM 42.7464 -72.4061 59° Northeast 361 415 15,900 -1,800 Descending Boston Center
07:40PM 42.7922 -72.2931 61° Northeast 356 410 14,100 -1,860 Descending Boston Center
07:41PM 42.8022 -72.1628 84° East 336 387 12,200 -1,860 Descending Boston Center
07:42PM 42.8122 -72.0325 84° East 322 371 10,400 -1,560 Descending Boston Center
07:43PM 42.8222 -71.9306 82° East 304 350 9,100 -1,500 Descending Boston Center
07:44PM 42.7989 -71.8119 105° East 292 336 7,400 -1,680 Descending Boston Center
07:45PM 42.7753 -71.7189 109° East 292 336 5,800 -1,680 Descending Boston Center
07:46PM 42.7517 -71.6089 106° East 281 323 4,100 -1,440 Descending Boston Center
07:47PM 42.7636 -71.5211 79° East 266 306 3,000 -600 Descending Boston Center
07:48PM 42.7753 -71.4275 80° East 239 275 3,000 -600 Level Boston Center
07:49PM 42.8039 -71.3875 46° Northeast 174 200 1,900 -1,140 Descending Boston Center